Time;durP1;ratioP1;P1;durP2;ratioP2;P2;SDS_P1;SDS_P2;PMS_P1;PMS_P2;Temp;Humidity;BMP_temperature;BMP_pressure;BME280_temperature;BME280_humidity;BME280_pressure;Samples;Min_cycle;Max_cycle;Signal;HPM_P1;HPM_P2
2024/01/02 00:00:20;;;;;;;14.15;7.72;;;;;;;;;;4994413;28;20032;-74
2024/01/02 00:02:46;;;;;;;13.10;7.22;;;;;;;;;;4991709;28;20052;-74
2024/01/02 00:05:14;;;;;;;10.98;5.65;;;;;;;;;;4993426;28;20034;-74
2024/01/02 00:07:40;;;;;;;12.75;6.32;;;;;;;;;;5009786;28;20132;-75
2024/01/02 00:10:06;;;;;;;14.13;6.57;;;;;;;;;;4996913;28;20072;-74
2024/01/02 00:12:33;;;;;;;12.27;5.93;;;;;;;;;;5009057;28;20642;-76
2024/01/02 00:15:00;;;;;;;15.70;8.45;;;;;;;;;;4993565;28;20128;-74
2024/01/02 00:17:26;;;;;;;12.88;6.40;;;;;;;;;;4999901;28;20136;-73
2024/01/02 00:19:52;;;;;;;10.68;4.72;;;;;;;;;;4995041;28;20966;-74
2024/01/02 00:22:20;;;;;;;12.48;4.60;;;;;;;;;;4999267;28;20124;-76
2024/01/02 00:24:46;;;;;;;10.82;4.72;;;;;;;;;;4999118;28;20112;-73
2024/01/02 00:27:12;;;;;;;13.63;6.25;;;;;;;;;;4994404;28;20082;-75
2024/01/02 00:29:38;;;;;;;12.00;6.10;;;;;;;;;;4997141;28;20551;-73
2024/01/02 00:32:05;;;;;;;14.88;6.78;;;;;;;;;;4999853;28;20427;-73
2024/01/02 00:34:31;;;;;;;18.00;10.50;;;;;;;;;;4996697;28;21042;-74
2024/01/02 00:36:57;;;;;;;15.40;8.95;;;;;;;;;;4991035;28;20796;-73
2024/01/02 00:39:24;;;;;;;16.08;10.35;;;;;;;;;;4997659;28;20392;-75
2024/01/02 00:41:50;;;;;;;17.33;9.75;;;;;;;;;;4993127;28;20043;-74
2024/01/02 00:44:16;;;;;;;14.70;8.77;;;;;;;;;;5016413;28;20400;-74
2024/01/02 00:46:43;;;;;;;14.68;8.68;;;;;;;;;;4994880;28;20228;-73
2024/01/02 00:49:10;;;;;;;16.02;8.75;;;;;;;;;;5001165;28;20044;-75
2024/01/02 00:51:36;;;;;;;16.58;8.57;;;;;;;;;;4994577;28;20026;-74
2024/01/02 00:54:02;;;;;;;14.98;8.35;;;;;;;;;;4991420;28;20037;-75
2024/01/02 00:56:28;;;;;;;15.63;8.38;;;;;;;;;;4994494;28;20034;-75
2024/01/02 00:58:54;;;;;;;;;;;;;;;;;;4992173;28;20170;-73
2024/01/02 01:01:21;;;;;;;14.93;8.65;;;;;;;;;;4997636;28;19927;-74
2024/01/02 01:03:47;;;;;;;15.02;8.63;;;;;;;;;;5006688;28;20073;-73
2024/01/02 01:06:13;;;;;;;14.38;8.07;;;;;;;;;;4997714;28;20153;-74
2024/01/02 01:08:41;;;;;;;;;;;;;;;;;;4991384;28;20125;-74
2024/01/02 01:11:07;;;;;;;13.80;7.10;;;;;;;;;;4994165;28;19921;-73
2024/01/02 01:13:34;;;;;;;11.57;6.05;;;;;;;;;;4994315;28;20072;-74
2024/01/02 01:16:00;;;;;;;11.63;5.70;;;;;;;;;;4990092;28;20570;-74
2024/01/02 01:18:26;;;;;;;11.38;4.95;;;;;;;;;;5009421;28;20041;-74
2024/01/02 01:20:52;;;;;;;12.50;5.43;;;;;;;;;;4992995;28;20159;-74
2024/01/02 01:23:18;;;;;;;11.68;5.38;;;;;;;;;;4997288;28;20041;-75
2024/01/02 01:25:46;;;;;;;9.90;4.43;;;;;;;;;;4992735;28;20026;-73
2024/01/02 01:28:12;;;;;;;10.93;4.90;;;;;;;;;;4997451;28;20778;-74
2024/01/02 01:30:38;;;;;;;10.55;4.82;;;;;;;;;;4993317;28;20611;-74
2024/01/02 01:33:04;;;;;;;12.75;5.00;;;;;;;;;;4999738;28;20057;-73
2024/01/02 01:35:31;;;;;;;;;;;;;;;;;;5008106;28;20041;-73
2024/01/02 01:37:57;;;;;;;9.38;4.20;;;;;;;;;;4992093;28;19917;-74
2024/01/02 01:40:23;;;;;;;11.85;4.68;;;;;;;;;;4995155;28;20042;-74
2024/01/02 01:42:49;;;;;;;9.43;3.85;;;;;;;;;;4992472;28;20039;-73
2024/01/02 01:45:18;;;;;;;9.82;3.58;;;;;;;;;;4993130;28;20054;-73
2024/01/02 01:47:45;;;;;;;8.60;3.13;;;;;;;;;;4991120;28;20026;-73
2024/01/02 01:50:12;;;;;;;8.48;2.80;;;;;;;;;;4993974;28;20033;-73
2024/01/02 01:52:40;;;;;;;7.93;2.97;;;;;;;;;;4992011;28;21282;-76
2024/01/02 01:55:06;;;;;;;9.43;3.47;;;;;;;;;;5000440;28;20141;-74
2024/01/02 01:57:32;;;;;;;;;;;;;;;;;;5004966;28;20071;-72
2024/01/02 01:59:58;;;;;;;8.82;3.42;;;;;;;;;;5013392;28;20555;-74
2024/01/02 02:02:25;;;;;;;8.90;3.30;;;;;;;;;;5000665;28;20035;-74
2024/01/02 02:04:51;;;;;;;;;;;;;;;;;;4993987;28;20064;-73
2024/01/02 02:07:17;;;;;;;8.32;2.72;;;;;;;;;;5013880;28;20425;-73
2024/01/02 02:09:43;;;;;;;9.20;2.92;;;;;;;;;;4998102;28;20069;-74
2024/01/02 02:12:09;;;;;;;8.85;2.75;;;;;;;;;;5003110;28;20120;-73
2024/01/02 02:14:35;;;;;;;7.72;2.30;;;;;;;;;;5000975;28;20055;-74
2024/01/02 02:17:02;;;;;;;9.43;2.80;;;;;;;;;;5000542;28;20025;-74
2024/01/02 02:19:28;;;;;;;7.43;2.33;;;;;;;;;;5002624;28;20037;-72
2024/01/02 02:21:55;;;;;;;7.95;3.03;;;;;;;;;;5001862;28;20041;-74
2024/01/02 02:24:21;;;;;;;9.38;3.47;;;;;;;;;;5002288;28;20030;-76
2024/01/02 02:26:48;;;;;;;10.38;3.50;;;;;;;;;;4999510;28;20028;-72
2024/01/02 02:29:14;;;;;;;;;;;;;;;;;;5016116;28;20033;-75
2024/01/02 02:31:40;;;;;;;7.72;2.97;;;;;;;;;;4996973;28;19909;-73
2024/01/02 02:34:06;;;;;;;8.32;2.70;;;;;;;;;;4997678;28;20064;-75
2024/01/02 02:36:32;;;;;;;7.70;2.42;;;;;;;;;;5011728;28;20047;-75
2024/01/02 02:38:58;;;;;;;7.18;2.30;;;;;;;;;;4996455;28;20450;-74
2024/01/02 02:41:24;;;;;;;8.25;2.83;;;;;;;;;;5002768;28;20095;-73
2024/01/02 02:43:50;;;;;;;8.02;2.55;;;;;;;;;;4996901;28;20591;-74
2024/01/02 02:46:18;;;;;;;8.05;2.20;;;;;;;;;;5002970;28;20030;-73
2024/01/02 02:48:47;;;;;;;7.30;2.15;;;;;;;;;;5002823;28;20036;-74
2024/01/02 02:51:13;;;;;;;7.53;2.25;;;;;;;;;;5014127;28;20036;-73
2024/01/02 02:53:39;;;;;;;7.28;2.05;;;;;;;;;;5011068;28;20516;-73
2024/01/02 02:56:05;;;;;;;6.50;1.95;;;;;;;;;;5009941;28;20029;-73
2024/01/02 02:58:31;;;;;;;8.60;2.08;;;;;;;;;;5028942;28;20032;-73
2024/01/02 03:00:57;;;;;;;6.38;1.85;;;;;;;;;;5009600;28;20046;-72
2024/01/02 03:03:25;;;;;;;6.88;2.10;;;;;;;;;;5018995;28;20026;-72
2024/01/02 03:05:52;;;;;;;6.65;2.03;;;;;;;;;;5024785;28;20034;-75
2024/01/02 03:08:18;;;;;;;6.93;2.00;;;;;;;;;;5025472;28;20034;-74
2024/01/02 03:10:45;;;;;;;6.85;1.80;;;;;;;;;;5008306;28;20743;-73
2024/01/02 03:13:11;;;;;;;5.53;1.60;;;;;;;;;;5009878;28;20030;-71
2024/01/02 03:15:38;;;;;;;6.72;1.80;;;;;;;;;;5011059;28;20029;-79
2024/01/02 03:18:05;;;;;;;9.27;1.90;;;;;;;;;;5009647;28;20033;-72
2024/01/02 03:20:31;;;;;;;6.88;1.90;;;;;;;;;;5008069;28;20034;-74
2024/01/02 03:22:59;;;;;;;6.72;1.90;;;;;;;;;;5013333;28;22400;-73
2024/01/02 03:25:27;;;;;;;6.82;2.03;;;;;;;;;;5001436;28;20037;-72
2024/01/02 03:27:55;;;;;;;7.10;1.90;;;;;;;;;;4997701;28;20132;-73
2024/01/02 03:30:22;;;;;;;7.95;2.13;;;;;;;;;;4997509;28;20037;-74
2024/01/02 03:32:48;;;;;;;;;;;;;;;;;;4996507;28;20040;-74
2024/01/02 03:35:14;;;;;;;9.77;2.20;;;;;;;;;;5000967;28;19912;-74
2024/01/02 03:37:40;;;;;;;6.57;2.15;;;;;;;;;;5000060;28;20054;-74
2024/01/02 03:40:07;;;;;;;6.55;2.30;;;;;;;;;;4996417;28;20037;-74
2024/01/02 03:42:33;;;;;;;;;;;;;;;;;;4998357;28;20033;-74
2024/01/02 03:44:59;;;;;;;8.48;2.90;;;;;;;;;;4993548;28;19962;-74
2024/01/02 03:47:25;;;;;;;7.80;2.53;;;;;;;;;;4998245;28;20077;-75
2024/01/02 03:49:53;;;;;;;9.60;3.78;;;;;;;;;;4993229;28;20925;-74
2024/01/02 03:52:19;;;;;;;10.25;3.92;;;;;;;;;;4998971;28;20667;-74
2024/01/02 03:54:45;;;;;;;9.68;3.78;;;;;;;;;;4994202;28;20049;-74
2024/01/02 03:57:12;;;;;;;9.55;4.22;;;;;;;;;;4996899;28;20041;-74
2024/01/02 03:59:38;;;;;;;8.95;3.00;;;;;;;;;;4995657;28;20239;-75
2024/01/02 04:02:04;;;;;;;7.78;2.60;;;;;;;;;;4997021;28;20036;-74
2024/01/02 04:04:30;;;;;;;7.90;2.33;;;;;;;;;;5005339;28;20076;-74
2024/01/02 04:06:57;;;;;;;6.82;2.15;;;;;;;;;;4997061;28;20033;-74
2024/01/02 04:09:24;;;;;;;;;;;;;;;;;;4996320;28;20764;-74
2024/01/02 04:11:50;;;;;;;5.25;1.60;;;;;;;;;;4994822;28;19921;-74
2024/01/02 04:14:17;;;;;;;6.97;1.88;;;;;;;;;;5001528;28;21942;-74
2024/01/02 04:16:43;;;;;;;6.35;1.77;;;;;;;;;;4994299;28;20736;-74
2024/01/02 04:19:09;;;;;;;5.30;1.50;;;;;;;;;;4997849;28;20575;-74
2024/01/02 04:21:35;;;;;;;6.22;1.40;;;;;;;;;;5001520;28;20632;-74
2024/01/02 04:24:01;;;;;;;;;;;;;;;;;;4996949;28;20029;-71
2024/01/02 04:26:27;;;;;;;5.50;1.27;;;;;;;;;;4998596;28;21250;-71
2024/01/02 04:28:55;;;;;;;6.10;1.38;;;;;;;;;;4991064;28;20052;-71
2024/01/02 04:31:21;;;;;;;5.32;1.40;;;;;;;;;;4993449;28;20049;-70
2024/01/02 04:33:48;;;;;;;7.72;1.60;;;;;;;;;;4995240;28;20056;-70
2024/01/02 04:36:14;;;;;;;5.97;1.38;;;;;;;;;;5000135;28;20034;-70
2024/01/02 04:38:41;;;;;;;5.85;1.38;;;;;;;;;;4990296;28;20109;-70
2024/01/02 04:41:07;;;;;;;5.50;1.30;;;;;;;;;;4996890;28;20034;-69
2024/01/02 04:43:33;;;;;;;6.68;1.58;;;;;;;;;;4997075;28;20983;-72
2024/01/02 04:46:03;;;;;;;7.13;1.40;;;;;;;;;;4990737;28;20042;-71
2024/01/02 04:48:29;;;;;;;7.97;1.42;;;;;;;;;;4995952;28;20036;-72
2024/01/02 04:50:55;;;;;;;5.65;1.48;;;;;;;;;;4992631;28;20037;-72
2024/01/02 04:53:21;;;;;;;6.60;1.70;;;;;;;;;;4996589;28;20196;-71
2024/01/02 04:55:48;;;;;;;5.78;1.38;;;;;;;;;;4991255;28;20048;-69
2024/01/02 04:58:14;;;;;;;8.20;1.63;;;;;;;;;;4992121;28;20044;-69
2024/01/02 05:00:41;;;;;;;;;;;;;;;;;;4990836;28;20118;-72
2024/01/02 05:03:07;;;;;;;5.65;1.55;;;;;;;;;;5012092;28;20051;-80
2024/01/02 05:05:34;;;;;;;6.30;1.70;;;;;;;;;;5011244;28;20505;-81
2024/01/02 05:08:05;;;;;;;5.35;1.40;;;;;;;;;;5015509;28;20105;-81
2024/01/02 05:10:31;;;;;;;6.07;1.60;;;;;;;;;;5011314;28;20144;-81
2024/01/02 05:12:59;;;;;;;7.95;1.70;;;;;;;;;;5016335;28;20402;-80
2024/01/02 05:15:26;;;;;;;6.68;1.70;;;;;;;;;;5013496;28;20030;-78
2024/01/02 05:17:53;;;;;;;4.95;1.42;;;;;;;;;;5004696;28;20025;-77
2024/01/02 05:20:19;;;;;;;9.02;2.17;;;;;;;;;;5009757;28;20749;-82
2024/01/02 05:22:45;;;;;;;;;;;;;;;;;;5016237;28;20034;-80
2024/01/02 05:25:12;;;;;;;7.70;1.95;;;;;;;;;;5014019;28;20034;-80
2024/01/02 05:27:38;;;;;;;8.23;2.22;;;;;;;;;;5008717;28;20059;-81
2024/01/02 05:30:05;;;;;;;7.93;2.28;;;;;;;;;;5011124;28;20469;-81
2024/01/02 05:32:31;;;;;;;;;;;;;;;;;;5010283;28;20029;-78
2024/01/02 05:34:57;;;;;;;7.53;1.80;;;;;;;;;;5007092;28;19951;-70
2024/01/02 05:37:24;;;;;;;7.68;1.92;;;;;;;;;;5000310;28;20091;-70
2024/01/02 05:39:55;;;;;;;7.38;1.80;;;;;;;;;;4996256;28;20045;-71
2024/01/02 05:42:22;;;;;;;6.85;1.50;;;;;;;;;;5000482;28;20033;-72
2024/01/02 05:44:49;;;;;;;6.40;1.55;;;;;;;;;;4998317;28;20033;-72
2024/01/02 05:47:15;;;;;;;8.13;1.60;;;;;;;;;;4999574;28;20475;-72
2024/01/02 05:49:41;;;;;;;5.72;1.42;;;;;;;;;;4996081;28;20076;-72
2024/01/02 05:52:08;;;;;;;7.18;1.63;;;;;;;;;;5013755;28;20116;-72
2024/01/02 05:54:34;;;;;;;5.80;1.55;;;;;;;;;;4997397;28;20037;-71
2024/01/02 05:57:02;;;;;;;7.93;2.05;;;;;;;;;;4995571;28;20046;-70
2024/01/02 05:59:29;;;;;;;9.55;2.83;;;;;;;;;;4996352;28;20049;-70
2024/01/02 06:01:55;;;;;;;;;;;;;;;;;;4995405;28;20033;-72
2024/01/02 06:04:21;;;;;;;7.82;2.45;;;;;;;;;;4997138;28;19924;-71
2024/01/02 06:06:47;;;;;;;10.88;3.20;;;;;;;;;;4994962;28;20033;-71
2024/01/02 06:09:13;;;;;;;10.52;3.55;;;;;;;;;;5017256;28;20029;-71
2024/01/02 06:11:39;;;;;;;9.65;3.20;;;;;;;;;;4996973;28;20044;-72
2024/01/02 06:14:05;;;;;;;9.70;3.03;;;;;;;;;;5006469;28;20045;-72
2024/01/02 06:16:32;;;;;;;10.57;2.58;;;;;;;;;;5001169;28;20041;-71
2024/01/02 06:18:59;;;;;;;6.45;1.90;;;;;;;;;;5004684;28;20038;-72
2024/01/02 06:21:27;;;;;;;10.43;2.55;;;;;;;;;;5006729;28;20035;-70
2024/01/02 06:23:53;;;;;;;7.80;2.20;;;;;;;;;;4998179;28;20800;-71
2024/01/02 06:26:19;;;;;;;6.13;1.80;;;;;;;;;;5001294;28;20022;-72
2024/01/02 06:28:45;;;;;;;;;;;;;;;;;;5001140;28;20030;-72
2024/01/02 06:31:11;;;;;;;8.02;2.10;;;;;;;;;;5004455;28;20690;-72
2024/01/02 06:33:44;;;;;;;9.73;2.63;;;;;;;;;;4998627;28;20116;-70
2024/01/02 06:36:10;;;;;;;8.25;2.10;;;;;;;;;;4999965;28;20045;-71
2024/01/02 06:38:36;;;;;;;10.07;2.20;;;;;;;;;;4998508;28;20021;-71
2024/01/02 06:41:05;;;;;;;;;;;;;;;;;;4997348;28;20038;-70
2024/01/02 06:43:32;;;;;;;8.07;2.30;;;;;;;;;;5001203;28;19928;-71
2024/01/02 06:45:59;;;;;;;8.63;2.28;;;;;;;;;;5007022;28;20046;-70
2024/01/02 06:48:25;;;;;;;13.27;3.30;;;;;;;;;;4996717;28;20033;-70
2024/01/02 06:50:51;;;;;;;10.02;2.95;;;;;;;;;;4995719;28;20026;-71
2024/01/02 06:53:18;;;;;;;10.95;3.20;;;;;;;;;;5003969;28;20029;-71
2024/01/02 06:55:45;;;;;;;11.25;3.63;;;;;;;;;;4992069;28;20129;-71
2024/01/02 06:58:11;;;;;;;10.38;3.50;;;;;;;;;;4997291;28;20018;-70
2024/01/02 07:00:38;;;;;;;9.70;3.60;;;;;;;;;;4993735;28;20058;-72
2024/01/02 07:03:04;;;;;;;11.88;3.50;;;;;;;;;;4994261;28;20088;-71
2024/01/02 07:05:33;;;;;;;10.45;3.85;;;;;;;;;;4995509;28;20068;-70
2024/01/02 07:08:03;;;;;;;11.43;3.33;;;;;;;;;;4994229;28;20024;-70
2024/01/02 07:10:32;;;;;;;11.52;4.13;;;;;;;;;;4995057;28;20029;-70
2024/01/02 07:13:01;;;;;;;10.90;3.50;;;;;;;;;;4993204;28;20030;-72
2024/01/02 07:15:29;;;;;;;10.60;3.78;;;;;;;;;;5013207;28;20021;-71
2024/01/02 07:17:56;;;;;;;9.60;3.13;;;;;;;;;;5012642;28;20061;-71
2024/01/02 07:20:23;;;;;;;;;;;;;;;;;;4997042;28;20033;-71
2024/01/02 07:22:50;;;;;;;9.65;2.75;;;;;;;;;;4992985;28;20647;-69
2024/01/02 07:25:17;;;;;;;9.90;3.15;;;;;;;;;;5007910;28;20029;-69
2024/01/02 07:27:44;;;;;;;11.43;3.40;;;;;;;;;;5004289;28;20021;-68
2024/01/02 07:30:11;;;;;;;13.07;3.60;;;;;;;;;;5010190;28;20045;-70
2024/01/02 07:32:41;;;;;;;10.30;3.38;;;;;;;;;;5004606;28;20541;-69
2024/01/02 07:35:11;;;;;;;11.27;3.45;;;;;;;;;;5008250;28;20164;-69
2024/01/02 07:37:38;;;;;;;10.27;3.30;;;;;;;;;;5005232;28;20036;-69
2024/01/02 07:40:06;;;;;;;10.00;3.28;;;;;;;;;;5004598;28;20830;-68
2024/01/02 07:42:34;;;;;;;12.60;4.05;;;;;;;;;;5005498;28;20561;-70
2024/01/02 07:45:02;;;;;;;15.30;7.70;;;;;;;;;;5002755;28;20042;-69
2024/01/02 07:47:29;;;;;;;19.70;10.38;;;;;;;;;;5004814;28;20034;-69
2024/01/02 07:49:57;;;;;;;20.15;9.70;;;;;;;;;;5003121;28;20041;-69
2024/01/02 07:52:23;;;;;;;18.48;9.82;;;;;;;;;;5007389;28;20041;-70
2024/01/02 07:54:49;;;;;;;15.10;6.70;;;;;;;;;;4997075;28;20045;-68
2024/01/02 07:57:15;;;;;;;13.10;6.22;;;;;;;;;;4997732;28;20048;-68
2024/01/02 07:59:41;;;;;;;13.43;5.13;;;;;;;;;;4994569;28;20595;-69
2024/01/02 08:02:08;;;;;;;11.20;4.07;;;;;;;;;;4995700;28;20088;-71
2024/01/02 08:04:34;;;;;;;15.73;5.43;;;;;;;;;;5014539;28;20128;-69
2024/01/02 08:07:01;;;;;;;11.13;4.60;;;;;;;;;;4990785;28;20484;-69
2024/01/02 08:09:27;;;;;;;15.75;5.53;;;;;;;;;;5012232;28;20022;-69
2024/01/02 08:11:54;;;;;;;14.05;4.90;;;;;;;;;;4993227;28;20037;-71
2024/01/02 08:14:20;;;;;;;;;;;;;;;;;;4998756;28;20030;-69
2024/01/02 08:16:46;;;;;;;13.90;5.53;;;;;;;;;;4990460;28;19924;-70
2024/01/02 08:19:13;;;;;;;14.35;5.63;;;;;;;;;;5005595;28;20682;-72
2024/01/02 08:21:40;;;;;;;19.27;7.90;;;;;;;;;;4996922;28;20037;-71
2024/01/02 08:24:06;;;;;;;16.40;5.70;;;;;;;;;;4999225;28;20033;-73
2024/01/02 08:26:33;;;;;;;14.63;6.00;;;;;;;;;;4995388;28;20026;-73
2024/01/02 08:29:00;;;;;;;13.13;5.13;;;;;;;;;;4994094;28;20025;-74
2024/01/02 08:31:26;;;;;;;;;;;;;;;;;;5000917;28;20033;-71
2024/01/02 08:33:52;;;;;;;17.45;5.80;;;;;;;;;;4996735;28;20462;-71
2024/01/02 08:36:19;;;;;;;15.23;6.93;;;;;;;;;;5009559;28;20038;-71
2024/01/02 08:38:45;;;;;;;13.50;5.90;;;;;;;;;;5006244;28;20521;-72
2024/01/02 08:41:11;;;;;;;15.38;5.10;;;;;;;;;;4999580;28;20026;-71
2024/01/02 08:43:37;;;;;;;;;;;;;;;;;;4996889;28;20408;-75
2024/01/02 08:46:05;;;;;;;13.25;4.15;;;;;;;;;;4997466;28;19917;-74
2024/01/02 08:48:33;;;;;;;15.80;4.45;;;;;;;;;;4999788;28;20025;-73
2024/01/02 08:50:59;;;;;;;13.73;4.93;;;;;;;;;;4996570;28;20045;-73
2024/01/02 08:53:25;;;;;;;12.45;5.55;;;;;;;;;;5013235;28;20854;-73
2024/01/02 08:55:51;;;;;;;16.65;6.70;;;;;;;;;;4993578;28;20042;-74
2024/01/02 08:58:17;;;;;;;;;;;;;;;;;;4997122;28;20034;-72
2024/01/02 09:00:43;;;;;;;16.48;5.45;;;;;;;;;;4996883;28;20111;-74
2024/01/02 09:03:09;;;;;;;;;;;;;;;;;;4997667;28;20273;-74
2024/01/02 09:05:36;;;;;;;12.65;4.18;;;;;;;;;;5011733;28;20200;-74
2024/01/02 09:08:04;;;;;;;13.68;4.55;;;;;;;;;;4997066;28;20721;-74
2024/01/02 09:10:31;;;;;;;11.07;3.88;;;;;;;;;;4994287;28;20042;-74
2024/01/02 09:12:57;;;;;;;;;;;;;;;;;;4995753;28;20029;-74
2024/01/02 09:15:23;;;;;;;11.73;4.00;;;;;;;;;;4998735;28;19913;-73
2024/01/02 09:17:49;;;;;;;11.32;3.88;;;;;;;;;;4996629;28;20029;-74
2024/01/02 09:20:15;;;;;;;;;;;;;;;;;;5013236;28;20115;-73
2024/01/02 09:22:41;;;;;;;10.45;4.13;;;;;;;;;;4991800;28;19966;-73
2024/01/02 09:25:08;;;;;;;;;;;;;;;;;;5000391;28;20038;-72
2024/01/02 09:27:36;;;;;;;10.57;3.50;;;;;;;;;;4998351;28;19913;-73
2024/01/02 09:30:04;;;;;;;11.57;3.50;;;;;;;;;;4999691;28;20060;-73
2024/01/02 09:32:32;;;;;;;10.82;2.88;;;;;;;;;;4998361;28;20048;-74
2024/01/02 09:34:58;;;;;;;12.05;3.00;;;;;;;;;;4989991;28;20041;-73
2024/01/02 09:37:24;;;;;;;;;;;;;;;;;;4997468;28;20038;-74
2024/01/02 09:39:53;;;;;;;11.05;3.20;;;;;;;;;;4996171;28;19925;-73
2024/01/02 09:42:19;;;;;;;12.48;3.42;;;;;;;;;;5000126;28;20028;-74
2024/01/02 09:44:45;;;;;;;;;;;;;;;;;;5010055;28;20957;-74
2024/01/02 09:47:30;;;;;;;11.18;2.78;;;;;;;;;;4998541;28;19920;-74
2024/01/02 09:50:02;;;;;;;10.00;2.60;;;;;;;;;;4992410;28;20657;-75
2024/01/02 09:52:53;;;;;;;8.52;2.42;;;;;;;;;;4995550;28;20595;-75
2024/01/02 09:55:35;;;;;;;10.27;2.90;;;;;;;;;;4996883;28;20123;-73
2024/01/02 09:58:32;;;;;;;10.15;2.90;;;;;;;;;;4991249;28;20044;-72
2024/01/02 10:01:19;;;;;;;8.32;2.45;;;;;;;;;;4988734;28;20356;-75
2024/01/02 10:03:46;;;;;;;;;;;;;;;;;;4989999;28;20034;-74
2024/01/02 10:06:32;;;;;;;10.40;2.22;;;;;;;;;;4998090;28;19932;-73
2024/01/02 10:08:58;;;;;;;11.48;2.47;;;;;;;;;;4995170;28;20607;-74
2024/01/02 10:11:25;;;;;;;;;;;;;;;;;;4994617;28;20157;-74
2024/01/02 10:14:07;;;;;;;9.75;2.20;;;;;;;;;;4993010;28;19940;-75
2024/01/02 10:17:04;;;;;;;11.77;3.08;;;;;;;;;;4997935;28;20033;-73
2024/01/02 10:19:42;;;;;;;11.05;2.85;;;;;;;;;;4995622;28;20112;-73
2024/01/02 10:22:09;;;;;;;8.77;2.30;;;;;;;;;;5003327;28;20037;-73
2024/01/02 10:24:54;;;;;;;9.50;2.90;;;;;;;;;;5000164;28;20037;-73
2024/01/02 10:27:34;;;;;;;9.63;2.55;;;;;;;;;;4994358;28;20034;-74
2024/01/02 10:30:07;;;;;;;9.20;2.65;;;;;;;;;;4993374;28;20041;-74
2024/01/02 10:32:36;;;;;;;8.52;2.80;;;;;;;;;;4995750;28;20552;-75
2024/01/02 10:35:06;;;;;;;9.45;2.53;;;;;;;;;;5013163;28;20057;-74
2024/01/02 10:37:36;;;;;;;8.80;2.78;;;;;;;;;;4999763;28;20041;-73
2024/01/02 10:40:09;;;;;;;7.85;2.28;;;;;;;;;;4997518;28;20045;-74
2024/01/02 10:42:49;;;;;;;11.63;2.80;;;;;;;;;;5008161;28;20029;-72
2024/01/02 10:45:25;;;;;;;12.07;2.42;;;;;;;;;;4999583;28;20033;-74
2024/01/02 10:47:58;;;;;;;9.10;2.85;;;;;;;;;;4996604;28;20105;-73
2024/01/02 10:50:30;;;;;;;12.82;3.70;;;;;;;;;;5003096;28;20040;-73
2024/01/02 10:52:57;;;;;;;10.38;2.97;;;;;;;;;;4997746;28;23912;-74
2024/01/02 10:55:30;;;;;;;10.18;2.97;;;;;;;;;;5000599;28;20029;-73
2024/01/02 10:58:10;;;;;;;11.88;3.20;;;;;;;;;;5007612;28;20496;-72
2024/01/02 11:00:48;;;;;;;13.55;3.22;;;;;;;;;;4995439;28;20053;-73
2024/01/02 11:03:16;;;;;;;11.27;3.58;;;;;;;;;;5001054;28;20061;-74
2024/01/02 11:05:46;;;;;;;13.57;4.15;;;;;;;;;;5000495;28;20128;-74
2024/01/02 11:08:31;;;;;;;10.88;3.88;;;;;;;;;;4999908;28;20034;-73
2024/01/02 11:10:58;;;;;;;11.95;4.65;;;;;;;;;;5001182;28;20099;-73
2024/01/02 11:13:26;;;;;;;12.85;4.25;;;;;;;;;;4998514;28;20083;-73
2024/01/02 11:16:08;;;;;;;12.80;4.45;;;;;;;;;;5011850;28;20575;-73
2024/01/02 11:18:35;;;;;;;10.38;3.80;;;;;;;;;;4998452;28;20039;-73
2024/01/02 11:21:05;;;;;;;13.43;4.07;;;;;;;;;;5000023;28;23981;-74
2024/01/02 11:23:35;;;;;;;12.95;3.90;;;;;;;;;;5002200;28;20030;-74
2024/01/02 11:26:20;;;;;;;25.05;12.57;;;;;;;;;;4997840;28;20029;-75
2024/01/02 11:28:46;;;;;;;16.75;5.28;;;;;;;;;;4997984;28;20099;-73
2024/01/02 11:31:13;;;;;;;14.52;5.43;;;;;;;;;;4996259;28;20029;-73
2024/01/02 11:33:40;;;;;;;12.55;3.22;;;;;;;;;;5000165;28;20042;-74
2024/01/02 11:36:24;;;;;;;14.25;4.18;;;;;;;;;;5000365;28;20828;-74
2024/01/02 11:38:57;;;;;;;14.95;4.85;;;;;;;;;;4994968;28;20049;-74
2024/01/02 11:41:23;;;;;;;15.40;4.80;;;;;;;;;;4998314;28;20128;-73
2024/01/02 11:43:54;;;;;;;13.38;3.80;;;;;;;;;;4992506;28;20032;-74
2024/01/02 11:46:23;;;;;;;11.57;3.08;;;;;;;;;;5000363;28;20030;-73
2024/01/02 11:48:51;;;;;;;12.52;2.78;;;;;;;;;;4994659;28;20030;-73
2024/01/02 11:51:17;;;;;;;10.82;2.78;;;;;;;;;;4995846;28;20149;-74
2024/01/02 11:53:43;;;;;;;14.15;3.05;;;;;;;;;;4996542;28;20918;-73
2024/01/02 11:56:13;;;;;;;10.55;2.80;;;;;;;;;;4994576;28;20113;-72
2024/01/02 11:58:46;;;;;;;11.52;2.90;;;;;;;;;;4992976;28;20117;-72
2024/01/02 12:01:17;;;;;;;12.57;2.97;;;;;;;;;;5002081;28;20228;-74
2024/01/02 12:03:49;;;;;;;13.70;3.47;;;;;;;;;;5009636;28;20034;-74
2024/01/02 12:06:20;;;;;;;14.20;2.70;;;;;;;;;;5002859;28;20040;-74
2024/01/02 12:08:49;;;;;;;12.02;2.90;;;;;;;;;;5010596;28;20041;-72
2024/01/02 12:11:17;;;;;;;15.38;3.40;;;;;;;;;;4993122;28;20082;-74
2024/01/02 12:14:09;;;;;;;10.20;2.65;;;;;;;;;;4996847;28;20599;-73
2024/01/02 12:16:40;;;;;;;11.05;2.95;;;;;;;;;;4972718;28;20042;-72
2024/01/02 12:19:09;;;;;;;12.38;3.03;;;;;;;;;;4996709;28;20038;-74
2024/01/02 12:21:39;;;;;;;15.13;3.50;;;;;;;;;;4999478;28;20124;-74
2024/01/02 12:24:06;;;;;;;12.27;3.30;;;;;;;;;;4998528;28;20033;-74
2024/01/02 12:26:35;;;;;;;11.68;3.00;;;;;;;;;;4999324;28;20319;-72
2024/01/02 12:29:02;;;;;;;11.07;3.28;;;;;;;;;;4998795;28;20793;-73
2024/01/02 12:31:47;;;;;;;12.40;3.08;;;;;;;;;;4996780;28;20041;-74
2024/01/02 12:34:19;;;;;;;14.00;3.45;;;;;;;;;;5011218;28;20037;-73
2024/01/02 12:37:09;;;;;;;16.95;3.83;;;;;;;;;;4994296;28;20034;-73
2024/01/02 12:39:40;;;;;;;12.85;3.13;;;;;;;;;;4993229;28;20037;-73
2024/01/02 12:42:13;;;;;;;14.38;3.42;;;;;;;;;;4998523;28;20033;-74
2024/01/02 12:44:41;;;;;;;14.27;3.50;;;;;;;;;;4993244;28;20029;-74
2024/01/02 12:47:09;;;;;;;13.73;3.45;;;;;;;;;;4994088;28;20054;-73
2024/01/02 12:49:47;;;;;;;16.45;3.50;;;;;;;;;;4998031;28;20594;-71
2024/01/02 12:52:20;;;;;;;12.57;3.20;;;;;;;;;;5013392;28;20087;-73
2024/01/02 12:54:48;;;;;;;14.82;3.42;;;;;;;;;;4992730;28;20129;-74
2024/01/02 12:57:15;;;;;;;13.23;3.50;;;;;;;;;;4997560;28;20036;-74
2024/01/02 12:59:43;;;;;;;12.10;3.30;;;;;;;;;;4994774;28;20049;-74
2024/01/02 13:02:10;;;;;;;11.70;4.15;;;;;;;;;;4997237;28;20025;-74
2024/01/02 13:04:37;;;;;;;17.77;4.40;;;;;;;;;;5008001;28;20444;-75
2024/01/02 13:07:04;;;;;;;17.75;4.28;;;;;;;;;;4994237;28;20030;-74
2024/01/02 13:09:31;;;;;;;18.40;3.78;;;;;;;;;;4996937;28;20115;-73
2024/01/02 13:11:58;;;;;;;14.52;3.83;;;;;;;;;;4997854;28;20040;-73
2024/01/02 13:14:25;;;;;;;14.75;3.30;;;;;;;;;;4998725;28;20044;-73
2024/01/02 13:16:52;;;;;;;12.73;3.33;;;;;;;;;;4999908;28;20033;-75
2024/01/02 13:19:19;;;;;;;15.15;3.83;;;;;;;;;;4996155;28;20033;-75
2024/01/02 13:21:46;;;;;;;13.80;3.53;;;;;;;;;;4991667;28;20141;-73
2024/01/02 13:24:12;;;;;;;13.70;3.85;;;;;;;;;;4998775;28;20036;-74
2024/01/02 13:26:45;;;;;;;14.60;4.03;;;;;;;;;;4996641;28;20156;-72
2024/01/02 13:29:12;;;;;;;15.73;3.80;;;;;;;;;;4993206;28;20033;-74
2024/01/02 13:31:43;;;;;;;15.73;3.80;;;;;;;;;;4993139;28;20481;-73
2024/01/02 13:34:31;;;;;;;18.45;3.58;;;;;;;;;;5000446;28;20147;-74
2024/01/02 13:36:57;;;;;;;13.27;4.28;;;;;;;;;;4986463;28;21860;-74
2024/01/02 13:39:38;;;;;;;12.70;4.30;;;;;;;;;;4992442;28;20040;-74
2024/01/02 13:42:05;;;;;;;18.10;4.38;;;;;;;;;;4993807;28;20045;-74
2024/01/02 13:44:35;;;;;;;12.32;4.90;;;;;;;;;;4995344;28;20038;-73
2024/01/02 13:47:01;;;;;;;17.25;3.78;;;;;;;;;;4992654;28;20022;-74
2024/01/02 13:49:43;;;;;;;15.07;4.05;;;;;;;;;;4992807;28;20042;-72
2024/01/02 13:52:11;;;;;;;13.85;5.15;;;;;;;;;;5003094;28;20693;-73
2024/01/02 13:54:41;;;;;;;14.25;4.53;;;;;;;;;;5013087;28;20046;-72
2024/01/02 13:57:07;;;;;;;22.33;9.55;;;;;;;;;;4995373;28;20037;-73
2024/01/02 13:59:34;;;;;;;17.70;4.90;;;;;;;;;;4998987;28;20045;-74
2024/01/02 14:02:03;;;;;;;26.98;14.48;;;;;;;;;;4990850;28;20041;-73
2024/01/02 14:04:31;;;;;;;17.77;4.55;;;;;;;;;;4995548;28;20030;-74
2024/01/02 14:07:02;;;;;;;20.00;8.05;;;;;;;;;;5007354;28;20036;-74
2024/01/02 14:09:28;;;;;;;14.95;6.60;;;;;;;;;;5002906;28;20025;-75
2024/01/02 14:11:59;;;;;;;15.98;5.18;;;;;;;;;;4998569;28;20037;-75
2024/01/02 14:14:29;;;;;;;18.35;7.57;;;;;;;;;;5003787;28;20045;-75
2024/01/02 14:17:05;;;;;;;20.17;9.35;;;;;;;;;;4997731;28;20546;-73
2024/01/02 14:19:36;;;;;;;15.57;6.45;;;;;;;;;;4999734;28;20033;-74
2024/01/02 14:22:11;;;;;;;12.63;4.10;;;;;;;;;;5001390;28;20354;-73
2024/01/02 14:25:07;;;;;;;16.80;4.27;;;;;;;;;;5015043;28;20065;-72
2024/01/02 14:27:40;;;;;;;17.70;6.80;;;;;;;;;;4957057;28;22765;-72
2024/01/02 14:30:06;;;;;;;12.75;4.30;;;;;;;;;;4945088;28;20146;-72
2024/01/02 14:32:32;;;;;;;;;;;;;;;;;;4954895;28;20129;-72
2024/01/02 14:35:27;;;;;;;19.00;4.00;;;;;;;;;;4952849;28;19917;-73
2024/01/02 14:38:12;;;;;;;21.40;9.50;;;;;;;;;;4935774;28;20125;-73
2024/01/02 14:40:57;;;;;;;17.30;5.75;;;;;;;;;;4955938;28;20126;-72
2024/01/02 14:43:29;;;;;;;19.20;4.75;;;;;;;;;;4954820;28;20129;-73
2024/01/02 14:46:14;;;;;;;16.75;4.95;;;;;;;;;;4951381;28;20048;-72
2024/01/02 14:49:00;;;;;;;16.77;4.50;;;;;;;;;;4953205;28;20587;-72
2024/01/02 14:51:49;;;;;;;14.95;4.70;;;;;;;;;;4923326;28;20085;-73